Marshallberg, NC (28553)

8:10 AM EST on March 04, 2015 (GMT -0500)
Wards Creek | Change Station
CLOSE
Current Station
Personal Weather Station
Location: Otway, NC
Elevation: 10 ft
Nearby Weather Stations
Active Advisory: Special Statement Active Notice: Public Information Statement

Elev 10 ft 34.79 °N, 76.56 °W | Updated 5 seconds ago

Fog
Fog
56.7 °F
Feels Like 56.7 °F
N
2.4
Wind Variable Wind from SW
Gusts 5.8 mph

Today
High -- | Low -- °F
--% Chance of Precip.
Yesterday
High -- | Low -- °F
Precip. -- in
6:31 AM 6:04 PM
Waxing Gibbous, 99% visible
Pressure 30.08 in
Visibility 0.2 miles
Clouds
Dew Point 56 °F
Humidity 98%
Rainfall 0.00 in
Snow Depth Not available.
UV Not available.
Pollen 8.20 out of 12
Air Quality Not available.
Flu Activity Not available.
METAR KMRH 041158Z AUTO 25009KT 1/4SM FG VV002 12/12 A3008 RMK AO2 SLP186 70009 T01170117 10139 20106 53009 TSNO

More Conditions Fewer Conditions

Pressure 30.08 in
Visibility 0.2 miles
Clouds
Dew Point 56 °F
Humidity 98%
Rainfall 0.00 in
Snow Depth Not available.
UV Not available.
Pollen 8.20 out of 12
Air Quality Not available.
Flu Activity Not available.
METAR KMRH 041158Z AUTO 25009KT 1/4SM FG VV002 12/12 A3008 RMK AO2 SLP186 70009 T01170117 10139 20106 53009 TSNO

More Conditions Fewer Conditions

10-Day Weather Forecast

Almanac

Astronomy

Mar. 04, 2015 Rise Set
Actual Time
Civil Twilight
Nautical Twilight
Astronomical Twilight
Moon
Length of Visible Light
Length of Day
Tomorrow will be .
, % of the Moon is Illuminated

Today's Extremes

State Highs State Lows

Community

WunderPhotos

Upload Photos

1,802,447 photos uploaded!

WunderBlogs® & News

Nearby

Air Quality

  Air Quality AQ Index Pollutant
Not available.

Snow Depth

Station Depth Elevation

Earthquake Activity

City Distance Mag. Time & Date
Minimum magnitude displayed is 2.5.

Coastal Water Temperatures

Place Temperature

Nearby Weather Stations

Special Statement
Statement as of 7:32 AM EST on March 04, 2015

... Foggy conditions today near the coast...

Areas of fog... locally dense at times... will affect coastal areas
through much of today as warm air blows over the cold waters.
Visibilities will be reduced from a quarter to a half mile
today... with the lowest visibilities on the immediate coast.
Use your low beam headlights... slow down and allow plenty of time
to reach your desination if driving near the beaches today.


732 am EST Wed Mar 4 2015

... Foggy conditions today near the coast...

Areas of fog... locally dense at times... will affect coastal areas
through much of today as warm air blows over the cold waters.
Visibilities will be reduced from a quarter to a half mile
today... with the lowest visibilities on the immediate coast.
Use your low beam headlights... slow down and allow plenty of time
to reach your desination if driving near the beaches today.